Pagrindinis puslapis
METAR-TAF:

METAR-TAF

Oro uostai :

Kingstonas, Jamaika

platuma: 17-56N, ilguma: 076-47W, Aukštis: 3 m

Dabartinis oras

Ataskaita buvo paskelbta 15 minutes, ne 00:00 UTC
Vėjas 19 kt iš Rytų/Pietryčių
Temperatūra 29°C
Drėgmė 70%
Slėgis 1015 hPa
Matomumas 10 km arba daugiau
Mažai debesys ne aukštis 2200 ft
Mažai debesys ne aukštis 2400 ft, Liūtiniai kamuoliniai debesys.

METAR: MKJP 020000Z 11019KT 9999 FEW022 FEW024CB 29/23 Q1015

Laikas: 19:15 (00:15 UTC)

Prognozė

Ataskaita buvo paskelbta 1 valandą ir 0 minutes, ne 23:15 UTC
Prognozė galioja nuo 02 metu 00 UTC su 02 metu 24 UTC
Vėjas 15 kt iš Rytų/Pietryčių
Matomumas 10 km arba daugiau
Mažai debesys ne aukštis 2000 ft
Mažai debesys ne aukštis 2200 ft, Liūtiniai kamuoliniai debesys.
Tapsmas
nuo 02 metu 06 UTC su 02 metu 08 UTC
Vėjas 10 kt iš Šiaurės
Mažai debesys ne aukštis 2200 ft
Tapsmas
nuo 02 metu 14 UTC su 02 metu 16 UTC
Vėjas 25 kt iš Pietryčių

TAF: MKJP 012315Z 0200/0224 11015KT 9999 FEW020 FEW022CB BECMG 0206/0208 35010KT FEW022 BECMG 0214/0216 13025KT

Orai ataskaitas ir orų prognozės (METAR, TAF).

turimą stotys yra geltonos ir raudonos taškus žemėlapyje.

Perkelti pele per norėdami pamatyti stoties vardą.

Tada spustelėkite, norėdami matyti oro stebėjimo ir prognozės.

Norėdami pakeisti žemėlapį: spustelėkite ant žalios mygtukų su juodo kryžiaus žemyn,; žalią mygtuką su brūkšneliu, jei norite nutolinti; arba žalių rodyklių gretimoms žemėlapius.


METAR-TAF: